createdAt,value
2022-09-15T00:01:18.837Z,16.53
2022-09-15T00:03:23.951Z,16.52
2022-09-15T00:05:26.289Z,16.41
2022-09-15T00:07:28.378Z,16.48
2022-09-15T00:09:30.723Z,16.47
2022-09-15T00:11:36.241Z,16.63
2022-09-15T00:13:40.283Z,16.54
2022-09-15T00:15:43.254Z,16.48
2022-09-15T00:17:50.786Z,16.70
2022-09-15T00:19:53.343Z,16.61
2022-09-15T00:21:55.824Z,16.81
2022-09-15T00:24:00.268Z,16.76
2022-09-15T00:26:07.102Z,16.80
2022-09-15T00:28:09.567Z,16.77
2022-09-15T00:30:12.019Z,16.69
2022-09-15T00:32:14.048Z,16.70
2022-09-15T00:34:16.569Z,16.73
2022-09-15T00:36:20.402Z,16.75
2022-09-15T00:38:22.700Z,16.73
2022-09-15T00:40:25.190Z,16.64
2022-09-15T00:42:27.346Z,16.55
2022-09-15T00:44:59.337Z,16.41
2022-09-15T00:47:18.854Z,16.17
2022-09-15T00:49:37.688Z,16.27
2022-09-15T00:52:09.208Z,16.07
2022-09-15T00:54:36.329Z,16.17
2022-09-15T00:56:41.362Z,15.87
2022-09-15T00:58:52.854Z,15.86
2022-09-15T01:00:59.394Z,15.97
2022-09-15T01:03:02.735Z,15.84
2022-09-15T01:05:10.453Z,15.94
2022-09-15T01:07:18.549Z,15.85
2022-09-15T01:09:33.640Z,15.75
2022-09-15T01:11:36.117Z,15.77
2022-09-15T01:13:38.527Z,15.68
2022-09-15T01:21:47.632Z,15.70
2022-09-15T01:24:16.889Z,15.61
2022-09-15T01:26:28.136Z,15.64
2022-09-15T01:28:57.382Z,15.62
2022-09-15T01:31:23.078Z,15.60
2022-09-15T01:34:03.552Z,15.53
2022-09-15T01:36:19.185Z,15.44
2022-09-15T01:39:00.414Z,15.53
2022-09-15T01:41:09.774Z,15.51
2022-09-15T01:43:12.921Z,15.46
2022-09-15T01:45:22.466Z,15.36
2022-09-15T01:47:28.114Z,15.40
2022-09-15T01:49:55.906Z,15.47
2022-09-15T01:51:57.944Z,15.51
2022-09-15T01:54:04.408Z,15.47
2022-09-15T01:56:10.805Z,15.70
2022-09-15T01:58:13.281Z,15.65
2022-09-15T02:00:15.938Z,15.68
2022-09-15T02:02:25.112Z,15.83
2022-09-15T02:04:38.696Z,16.05
2022-09-15T02:06:53.741Z,15.99
2022-09-15T02:09:14.050Z,15.98
2022-09-15T02:11:20.466Z,15.95
2022-09-15T02:13:56.576Z,16.04
2022-09-15T02:16:00.719Z,16.10
2022-09-15T02:18:07.381Z,15.97
2022-09-15T02:20:27.576Z,16.03
2022-09-15T02:22:38.100Z,15.83
2022-09-15T02:24:46.083Z,15.82
2022-09-15T02:26:51.544Z,15.79
2022-09-15T02:28:58.156Z,15.83
2022-09-15T02:31:03.098Z,15.81
2022-09-15T02:33:11.124Z,15.83
2022-09-15T02:35:15.878Z,15.86
2022-09-15T02:37:20.934Z,15.81
2022-09-15T02:39:29.909Z,15.75
2022-09-15T02:41:34.843Z,15.71
2022-09-15T02:43:48.381Z,15.73
2022-09-15T02:45:50.679Z,15.73
2022-09-15T02:47:52.749Z,15.78
2022-09-15T02:49:55.169Z,15.82
2022-09-15T02:51:57.478Z,15.66
2022-09-15T02:53:59.575Z,15.79
2022-09-15T02:56:01.887Z,15.76
2022-09-15T02:58:04.356Z,15.55
2022-09-15T03:00:07.634Z,15.59
2022-09-15T03:02:09.790Z,15.43
2022-09-15T03:04:12.473Z,15.46
2022-09-15T03:06:14.582Z,15.40
2022-09-15T03:08:16.622Z,15.30
2022-09-15T03:10:19.891Z,15.19
2022-09-15T03:12:21.921Z,15.09
2022-09-15T03:14:24.011Z,14.88
2022-09-15T03:16:28.797Z,14.82
2022-09-15T03:18:30.932Z,14.57
2022-09-15T03:20:32.863Z,14.54
2022-09-15T03:22:36.300Z,14.32
2022-09-15T03:24:38.727Z,14.23
2022-09-15T03:26:41.070Z,14.22
2022-09-15T03:28:43.669Z,14.15
2022-09-15T03:30:45.887Z,13.93
2022-09-15T03:32:47.922Z,13.98
2022-09-15T03:34:50.271Z,13.89
2022-09-15T03:36:52.254Z,13.89
2022-09-15T03:38:57.063Z,13.69
2022-09-15T03:41:05.577Z,13.83
2022-09-15T03:43:07.747Z,13.76
2022-09-15T03:45:10.081Z,13.67
2022-09-15T03:47:12.403Z,13.70
2022-09-15T03:49:14.369Z,13.88
2022-09-15T03:51:16.610Z,13.79
2022-09-15T03:53:19.816Z,13.81
2022-09-15T03:55:21.900Z,13.88
2022-09-15T03:57:23.938Z,13.90
2022-09-15T03:59:26.381Z,13.88
2022-09-15T04:01:29.176Z,13.93
2022-09-15T04:03:31.375Z,13.85
2022-09-15T04:05:34.517Z,13.77
2022-09-15T04:07:37.381Z,13.90
2022-09-15T04:09:39.470Z,13.89
2022-09-15T04:11:41.896Z,13.89
2022-09-15T04:13:44.097Z,13.98
2022-09-15T04:15:46.261Z,14.00
2022-09-15T04:17:49.558Z,14.05
2022-09-15T04:19:51.617Z,14.11
2022-09-15T04:21:53.613Z,14.13
2022-09-15T04:23:55.903Z,14.04
2022-09-15T04:26:00.166Z,14.08
2022-09-15T04:28:02.368Z,14.05
2022-09-15T04:30:07.607Z,14.11
2022-09-15T04:32:10.326Z,14.10
2022-09-15T04:34:12.985Z,14.05
2022-09-15T04:36:19.514Z,14.08
2022-09-15T04:38:21.573Z,14.19
2022-09-15T04:40:23.482Z,14.25
2022-09-15T04:42:25.991Z,14.12
2022-09-15T04:44:27.845Z,14.32
2022-09-15T04:46:30.052Z,14.25
2022-09-15T04:48:32.735Z,14.44
2022-09-15T04:50:34.758Z,14.55
2022-09-15T04:52:37.376Z,14.67
2022-09-15T04:54:39.786Z,14.64
2022-09-15T04:56:41.874Z,14.83
2022-09-15T04:58:46.044Z,14.90
2022-09-15T05:00:48.460Z,14.86
2022-09-15T05:02:50.702Z,14.78
2022-09-15T05:04:52.762Z,14.96
2022-09-15T05:06:55.131Z,14.89
2022-09-15T05:08:58.445Z,14.80
2022-09-15T05:11:05.553Z,14.92
2022-09-15T05:13:07.858Z,14.86
2022-09-15T05:15:10.231Z,14.91
2022-09-15T05:17:19.022Z,14.94
2022-09-15T05:19:24.156Z,14.89
2022-09-15T05:21:27.698Z,14.91
2022-09-15T05:23:29.888Z,14.85
2022-09-15T05:25:32.266Z,14.92
2022-09-15T05:27:34.396Z,14.86
2022-09-15T05:29:36.364Z,14.89
2022-09-15T05:31:38.798Z,14.89
2022-09-15T05:33:40.888Z,14.69
2022-09-15T05:35:56.994Z,14.66
2022-09-15T05:37:59.389Z,14.71
2022-09-15T05:40:05.129Z,14.83
2022-09-15T05:42:10.435Z,14.82
2022-09-15T05:44:12.871Z,14.73
2022-09-15T05:46:17.076Z,14.87
2022-09-15T05:48:19.708Z,14.74
2022-09-15T05:50:22.192Z,14.77
2022-09-15T05:52:24.234Z,14.87
2022-09-15T05:54:26.232Z,14.90
2022-09-15T05:56:28.615Z,14.96
2022-09-15T05:58:31.596Z,14.98
2022-09-15T06:00:34.455Z,15.00
2022-09-15T06:02:36.832Z,15.03
2022-09-15T06:04:41.562Z,15.23
2022-09-15T06:06:43.523Z,15.27
2022-09-15T06:08:53.031Z,15.30
2022-09-15T06:11:08.483Z,15.26
2022-09-15T06:13:10.577Z,15.39
2022-09-15T06:15:12.861Z,15.63
2022-09-15T06:17:14.870Z,15.96
2022-09-15T06:19:17.108Z,16.31
2022-09-15T06:21:26.742Z,16.58
2022-09-15T06:23:28.871Z,16.80
2022-09-15T06:25:30.925Z,17.10
2022-09-15T06:27:33.542Z,17.51
2022-09-15T06:29:35.637Z,17.67
2022-09-15T06:31:37.888Z,17.90
2022-09-15T06:33:47.994Z,18.09
2022-09-15T06:35:50.124Z,18.31
2022-09-15T06:37:52.184Z,18.72
2022-09-15T06:39:54.511Z,19.01
2022-09-15T06:42:02.774Z,19.21
2022-09-15T06:44:05.700Z,19.41
2022-09-15T06:46:14.819Z,19.48
2022-09-15T06:48:24.404Z,19.79
2022-09-15T06:50:28.230Z,20.22
2022-09-15T06:52:30.690Z,20.72
2022-09-15T06:54:32.749Z,21.13
2022-09-15T06:56:38.116Z,21.41
2022-09-15T06:58:42.585Z,21.69
2022-09-15T07:00:45.062Z,21.90
2022-09-15T07:02:53.400Z,22.07
2022-09-15T07:04:55.927Z,22.30
2022-09-15T07:06:58.074Z,22.23
2022-09-15T07:09:00.359Z,22.05
2022-09-15T07:11:02.737Z,21.77
2022-09-15T07:13:04.832Z,21.77
2022-09-15T07:15:07.875Z,21.68
2022-09-15T07:17:10.238Z,21.73
2022-09-15T07:19:12.494Z,21.82
2022-09-15T07:21:20.469Z,21.89
2022-09-15T07:23:22.989Z,22.10
2022-09-15T07:25:25.038Z,22.00
2022-09-15T07:27:27.226Z,21.98
2022-09-15T07:29:29.646Z,21.90
2022-09-15T07:31:34.846Z,22.10
2022-09-15T07:33:37.411Z,22.16
2022-09-15T07:35:44.054Z,22.26
2022-09-15T07:37:46.102Z,22.47
2022-09-15T07:39:48.416Z,22.64
2022-09-15T07:41:50.808Z,22.62
2022-09-15T07:43:56.582Z,22.59
2022-09-15T07:46:00.563Z,22.68
2022-09-15T07:48:03.436Z,22.88
2022-09-15T07:50:07.372Z,22.94
2022-09-15T07:52:11.070Z,23.08
2022-09-15T07:54:19.387Z,22.93
2022-09-15T07:56:23.945Z,22.78
2022-09-15T07:58:26.081Z,22.86
2022-09-15T08:00:28.936Z,22.84
2022-09-15T08:02:31.176Z,22.94
2022-09-15T08:04:33.339Z,22.68
2022-09-15T08:06:35.947Z,22.67
2022-09-15T08:08:39.789Z,22.61
2022-09-15T08:10:42.190Z,22.64
2022-09-15T08:12:44.639Z,22.52
2022-09-15T08:14:46.827Z,22.54
2022-09-15T08:16:49.331Z,22.31
2022-09-15T08:18:54.200Z,22.13
2022-09-15T08:20:56.518Z,21.93
2022-09-15T08:22:58.652Z,21.72
2022-09-15T08:25:01.099Z,21.60
2022-09-15T08:27:04.952Z,21.65
2022-09-15T08:29:07.210Z,21.66
2022-09-15T08:31:12.784Z,21.67
2022-09-15T08:33:15.047Z,21.37
2022-09-15T08:35:17.903Z,21.35
2022-09-15T08:37:20.477Z,21.13
2022-09-15T08:39:22.743Z,21.25
2022-09-15T08:41:34.550Z,21.16
2022-09-15T08:43:52.810Z,21.23
2022-09-15T08:46:04.909Z,21.35
2022-09-15T08:48:07.206Z,21.44
2022-09-15T08:50:34.396Z,21.41
2022-09-15T08:53:04.102Z,21.29
2022-09-15T08:55:14.984Z,20.93
2022-09-15T08:57:22.357Z,20.89
2022-09-15T08:59:35.079Z,20.73
2022-09-15T09:02:06.286Z,20.56
2022-09-15T09:05:03.608Z,20.66
2022-09-15T09:07:36.076Z,20.67
2022-09-15T09:09:49.297Z,21.00
2022-09-15T09:12:26.403Z,21.30
2022-09-15T09:15:12.818Z,21.40
2022-09-15T09:17:41.975Z,21.33
2022-09-15T09:20:02.558Z,21.34
2022-09-15T09:22:16.686Z,21.05
2022-09-15T09:24:43.546Z,20.90
2022-09-15T09:26:52.434Z,20.90
2022-09-15T09:29:05.863Z,20.80
2022-09-15T09:31:18.834Z,20.78
2022-09-15T09:33:53.448Z,20.81
2022-09-15T09:35:59.385Z,20.75
2022-09-15T09:38:02.461Z,20.87
2022-09-15T09:40:08.440Z,21.10
2022-09-15T09:42:16.905Z,21.20
2022-09-15T09:44:19.721Z,21.42
2022-09-15T09:46:45.820Z,21.40
2022-09-15T09:49:26.170Z,21.53
2022-09-15T09:51:38.022Z,21.58
2022-09-15T09:53:40.432Z,21.64
2022-09-15T09:55:42.691Z,21.57
2022-09-15T09:57:45.424Z,21.60
2022-09-15T09:59:51.959Z,21.46
2022-09-15T10:02:21.255Z,21.58
2022-09-15T10:04:23.973Z,21.41
2022-09-15T10:06:31.143Z,21.52
2022-09-15T10:08:36.690Z,21.44
2022-09-15T10:10:39.408Z,21.47
2022-09-15T10:12:45.949Z,21.59
2022-09-15T10:14:53.946Z,21.76
2022-09-15T10:17:21.809Z,21.87
2022-09-15T10:19:24.619Z,21.87
2022-09-15T10:21:27.106Z,22.00
2022-09-15T10:23:32.798Z,22.17
2022-09-15T10:25:58.480Z,22.07
2022-09-15T10:28:21.025Z,22.30
2022-09-15T10:30:24.853Z,22.44
2022-09-15T10:32:31.729Z,22.54
2022-09-15T10:34:36.405Z,22.59
2022-09-15T10:36:39.474Z,22.68
2022-09-15T10:38:57.917Z,22.64
2022-09-15T10:41:28.235Z,22.70
2022-09-15T10:43:50.934Z,22.49
2022-09-15T10:46:08.222Z,22.10
2022-09-15T10:48:37.375Z,22.01
2022-09-15T10:51:01.174Z,21.71
2022-09-15T10:53:31.522Z,21.68
2022-09-15T10:55:55.774Z,21.32
2022-09-15T10:58:23.689Z,21.23
2022-09-15T11:04:03.585Z,20.80
2022-09-15T11:07:58.663Z,20.52
2022-09-15T11:10:30.534Z,20.34
2022-09-15T11:12:49.548Z,20.19
2022-09-15T11:15:25.580Z,20.20
2022-09-15T11:25:37.473Z,20.00
2022-09-15T11:27:54.038Z,20.12
2022-09-15T11:30:21.356Z,19.99
2022-09-15T11:32:58.203Z,20.13
2022-09-15T11:35:33.320Z,20.40
2022-09-15T11:37:48.368Z,20.25
2022-09-15T11:40:39.057Z,20.47
2022-09-15T11:43:00.531Z,20.45
2022-09-15T11:45:18.416Z,20.53
2022-09-15T11:47:54.089Z,20.69
2022-09-15T11:50:24.756Z,20.62
2022-09-15T11:52:57.831Z,20.63
2022-09-15T11:55:27.921Z,20.63
2022-09-15T11:57:45.060Z,20.58
2022-09-15T12:00:03.914Z,20.80
2022-09-15T12:03:33.676Z,21.00
2022-09-15T13:21:06.432Z,20.61
2022-09-15T13:23:14.305Z,20.57
2022-09-15T13:25:26.343Z,20.33
2022-09-15T13:31:04.789Z,20.52
2022-09-15T13:59:57.210Z,20.42
2022-09-15T14:11:09.322Z,20.53
2022-09-15T14:19:42.830Z,20.31
2022-09-15T14:22:07.296Z,20.07
2022-09-15T14:24:33.793Z,19.97
2022-09-15T14:26:39.870Z,19.86
2022-09-15T14:29:00.468Z,19.79
2022-09-15T14:31:07.940Z,19.72
2022-09-15T14:33:17.864Z,19.67
2022-09-15T14:35:28.085Z,19.81
2022-09-15T14:37:36.705Z,19.69
2022-09-15T14:39:43.388Z,19.52
2022-09-15T14:41:49.098Z,19.44
2022-09-15T14:43:57.866Z,19.45
2022-09-15T14:46:17.520Z,19.36
2022-09-15T14:48:28.448Z,19.36
2022-09-15T14:56:25.687Z,19.10
2022-09-15T14:59:08.614Z,19.05
2022-09-15T15:01:30.983Z,18.95
2022-09-15T15:04:03.977Z,19.13
2022-09-15T15:06:30.564Z,19.13
2022-09-15T15:08:54.426Z,19.07
2022-09-15T15:10:59.233Z,19.05
2022-09-15T15:13:15.589Z,19.12
2022-09-15T15:15:22.528Z,19.13
2022-09-15T15:17:47.222Z,19.19
2022-09-15T15:20:12.108Z,19.20
2022-09-15T15:22:21.145Z,19.32
2022-09-15T15:24:24.639Z,19.25
2022-09-15T15:26:39.935Z,19.31
2022-09-15T15:28:45.179Z,19.26
2022-09-15T15:30:48.424Z,19.23
2022-09-15T15:42:03.657Z,19.20
2022-09-15T15:47:20.172Z,19.06
2022-09-15T15:50:12.147Z,18.86
2022-09-15T15:52:16.245Z,18.94
2022-09-15T15:54:20.834Z,18.98
2022-09-15T15:56:26.954Z,18.75
2022-09-15T15:58:29.690Z,18.72
2022-09-15T16:00:52.301Z,18.67
2022-09-15T16:02:58.451Z,18.86
2022-09-15T16:06:01.580Z,18.62
2022-09-15T16:16:44.749Z,18.66
2022-09-15T16:21:43.059Z,18.36
2022-09-15T16:23:46.730Z,18.35
2022-09-15T16:26:07.399Z,18.27
2022-09-15T16:28:13.282Z,18.28
2022-09-15T16:30:18.278Z,18.28
2022-09-15T16:32:23.126Z,18.32
2022-09-15T16:34:28.488Z,18.19
2022-09-15T16:36:35.041Z,18.23
2022-09-15T16:38:37.546Z,18.20
2022-09-15T16:40:40.227Z,18.02
2022-09-15T16:42:45.003Z,17.89
2022-09-15T16:44:47.565Z,17.81
2022-09-15T16:46:50.799Z,17.85
2022-09-15T16:48:54.227Z,17.72
2022-09-15T16:51:24.943Z,17.68
2022-09-15T16:53:26.005Z,17.69
2022-09-15T16:55:34.429Z,17.44
2022-09-15T16:57:36.778Z,17.41
2022-09-15T16:59:43.080Z,17.31
2022-09-15T17:09:27.188Z,17.27
2022-09-15T17:11:57.982Z,17.10
2022-09-15T17:16:28.964Z,17.16
2022-09-15T17:18:35.511Z,17.13
2022-09-15T17:20:47.946Z,17.09
2022-09-15T17:23:35.181Z,17.07
2022-09-15T17:28:24.570Z,17.02
2022-09-15T17:30:36.076Z,17.07
2022-09-15T17:32:44.654Z,16.87
2022-09-15T17:34:50.877Z,16.82
2022-09-15T17:36:59.530Z,16.80
2022-09-15T17:39:08.280Z,16.80
2022-09-15T17:41:15.860Z,16.78
2022-09-15T17:43:29.342Z,16.75
2022-09-15T17:45:39.804Z,16.71
2022-09-15T17:47:49.986Z,16.69
2022-09-15T17:49:56.595Z,16.67
2022-09-15T17:52:00.707Z,16.65
2022-09-15T17:54:11.253Z,16.64
2022-09-15T17:56:17.263Z,16.62
2022-09-15T17:58:23.170Z,16.57
2022-09-15T18:00:35.460Z,16.78
2022-09-15T18:02:47.991Z,16.46
2022-09-15T18:04:50.728Z,16.46
2022-09-15T18:06:53.712Z,16.68
2022-09-15T18:08:55.920Z,16.56
2022-09-15T18:10:58.274Z,16.42
2022-09-15T18:13:02.773Z,16.61
2022-09-15T18:15:05.912Z,16.53
2022-09-15T18:17:10.061Z,16.55
2022-09-15T18:19:13.001Z,16.42
2022-09-15T18:21:25.563Z,16.42
2022-09-15T18:23:28.717Z,16.39
2022-09-15T18:25:57.088Z,16.55
2022-09-15T18:28:01.049Z,16.35
2022-09-15T18:30:04.131Z,16.29
2022-09-15T18:32:06.904Z,16.25
2022-09-15T18:34:09.402Z,16.20
2022-09-15T18:36:12.471Z,16.24
2022-09-15T18:38:16.637Z,16.21
2022-09-15T18:40:22.399Z,16.12
2022-09-15T18:42:29.862Z,16.15
2022-09-15T18:44:34.977Z,16.05
2022-09-15T18:46:40.207Z,16.00
2022-09-15T18:48:42.966Z,16.03
2022-09-15T18:50:46.445Z,16.02
2022-09-15T18:53:06.003Z,16.05
2022-09-15T18:55:55.279Z,15.93
2022-09-15T18:58:11.860Z,15.86
2022-09-15T19:00:36.678Z,15.78
2022-09-15T19:02:54.251Z,15.58
2022-09-15T19:05:16.778Z,15.48
2022-09-15T19:07:34.394Z,15.36
2022-09-15T19:14:57.463Z,15.17
2022-09-15T19:17:12.478Z,15.11
2022-09-15T19:19:26.077Z,15.03
2022-09-15T19:21:45.483Z,15.03
2022-09-15T19:23:49.335Z,15.14
2022-09-15T19:26:15.520Z,14.96
2022-09-15T19:28:41.191Z,14.92
2022-09-15T19:30:47.985Z,14.89
2022-09-15T19:32:55.035Z,15.06
2022-09-15T19:37:54.431Z,15.05
2022-09-15T21:08:49.844Z,13.47
2022-09-15T21:10:53.813Z,13.50
2022-09-15T21:13:08.060Z,13.70
2022-09-15T21:15:11.394Z,13.55
2022-09-15T21:17:15.337Z,13.57
2022-09-15T21:19:18.533Z,13.59
2022-09-15T21:21:27.328Z,13.81
2022-09-15T21:23:43.487Z,13.63
2022-09-15T21:25:47.017Z,13.81
2022-09-15T21:27:50.541Z,13.70
2022-09-15T21:29:54.263Z,13.59
2022-09-15T21:31:57.900Z,13.82
2022-09-15T21:34:01.485Z,13.66
2022-09-15T21:36:13.171Z,13.68
2022-09-15T21:38:19.254Z,13.65
2022-09-15T21:40:22.017Z,13.61
2022-09-15T22:10:39.279Z,13.41
2022-09-15T22:12:44.790Z,13.59
2022-09-15T22:14:47.516Z,13.54
2022-09-15T22:16:50.353Z,13.44
2022-09-15T22:19:21.534Z,13.63
2022-09-15T22:21:27.890Z,13.47
2022-09-15T22:23:30.958Z,13.47
2022-09-15T22:25:37.821Z,13.52
2022-09-15T22:27:40.843Z,13.64
2022-09-15T22:29:43.660Z,13.39
2022-09-15T22:31:46.878Z,13.46
2022-09-15T22:33:50.870Z,13.49
2022-09-15T22:35:53.777Z,13.36
2022-09-15T22:37:57.134Z,13.39
2022-09-15T22:40:00.362Z,13.43
2022-09-15T22:42:02.994Z,13.36
2022-09-15T22:44:08.031Z,13.43
2022-09-15T22:46:11.684Z,13.34
2022-09-15T22:48:14.719Z,13.30
2022-09-15T22:50:17.345Z,13.26
2022-09-15T22:52:20.173Z,13.24
2022-09-15T22:54:22.900Z,13.26
2022-09-15T22:56:26.603Z,13.33
2022-09-15T22:58:29.806Z,13.23
2022-09-15T23:00:32.714Z,13.45
2022-09-15T23:02:35.557Z,13.22
2022-09-15T23:04:38.117Z,13.21
2022-09-15T23:06:40.996Z,13.42
2022-09-15T23:08:44.755Z,13.25
2022-09-15T23:10:53.724Z,13.26
2022-09-15T23:13:01.481Z,13.31
2022-09-15T23:15:06.681Z,13.29
2022-09-15T23:17:09.962Z,13.31
2022-09-15T23:19:14.617Z,13.37
2022-09-15T23:21:19.160Z,13.32
2022-09-15T23:23:21.805Z,13.22
2022-09-15T23:25:29.635Z,13.22
2022-09-15T23:27:33.035Z,13.24
2022-09-15T23:29:39.229Z,13.36
2022-09-15T23:31:42.408Z,13.48
2022-09-15T23:33:46.618Z,13.23
2022-09-15T23:35:54.107Z,13.51
2022-09-15T23:37:59.775Z,13.32
2022-09-15T23:40:05.899Z,13.35
2022-09-15T23:42:36.703Z,13.57
2022-09-15T23:44:42.279Z,13.33
2022-09-15T23:46:45.500Z,13.43
2022-09-15T23:48:48.292Z,13.38
2022-09-15T23:50:53.452Z,13.45
2022-09-15T23:52:57.136Z,13.55
2022-09-15T23:54:59.880Z,13.71
2022-09-15T23:57:05.547Z,13.49
2022-09-15T23:59:11.899Z,13.44
